Terminal Aerodrome Forecast
Issued by NWS

Current Version | Previous Version | Text Only | Print | Product List | Glossary On
Versions: 1 2 3 4 5 6 7 8 9 10 11 12 13 14 15 16 17 18 19 20 21 22 23
000
FTUS41 KOKX 160800 AAA
TAFHPN
TAF AMD
KHPN 160830Z 1609/1706 VRB02KT P6SM BKN040 BKN150
     FM161200 VRB03KT P6SM VCSH BKN040 OVC100
     FM161500 VRB05KT P6SM BKN060 BKN100
     FM162000 29007KT P6SM SCT060 SCT150
     FM170100 34006KT P6SM SCT250
      AMD NOT SKED=

USA.gov is the U.S. government's official web portal to all federal, state and local government web resources and services.